sensor_id;sensor_type;location;lat;lon;timestamp;pressure;altitude;pressure_sealevel;temperature;humidity
41866;BME280;27539;43.222;27.558;2022-07-06T00:01:19;100341.06;;;18.72;100.00
41866;BME280;27539;43.222;27.558;2022-07-06T00:03:45;100341.97;;;18.68;100.00
41866;BME280;27539;43.222;27.558;2022-07-06T00:06:11;100338.63;;;18.66;100.00
41866;BME280;27539;43.222;27.558;2022-07-06T00:08:37;100343.59;;;18.74;100.00
41866;BME280;27539;43.222;27.558;2022-07-06T00:11:03;100339.00;;;18.78;100.00
41866;BME280;27539;43.222;27.558;2022-07-06T00:13:29;100343.03;;;18.72;100.00
41866;BME280;27539;43.222;27.558;2022-07-06T00:15:54;100311.69;;;18.60;100.00
41866;BME280;27539;43.222;27.558;2022-07-06T00:18:20;100326.88;;;18.96;100.00
41866;BME280;27539;43.222;27.558;2022-07-06T00:20:45;100333.44;;;19.06;100.00
41866;BME280;27539;43.222;27.558;2022-07-06T00:23:11;100335.06;;;19.12;100.00
41866;BME280;27539;43.222;27.558;2022-07-06T00:25:36;100314.25;;;18.94;100.00
41866;BME280;27539;43.222;27.558;2022-07-06T00:28:02;100324.84;;;18.83;100.00
41866;BME280;27539;43.222;27.558;2022-07-06T00:30:28;100344.13;;;19.09;100.00
41866;BME280;27539;43.222;27.558;2022-07-06T00:32:53;100331.25;;;19.03;100.00
41866;BME280;27539;43.222;27.558;2022-07-06T00:35:19;100319.63;;;18.90;100.00
41866;BME280;27539;43.222;27.558;2022-07-06T00:37:44;100330.25;;;18.61;100.00
41866;BME280;27539;43.222;27.558;2022-07-06T00:40:10;100311.28;;;18.33;100.00
41866;BME280;27539;43.222;27.558;2022-07-06T00:42:40;100290.47;;;18.48;100.00
41866;BME280;27539;43.222;27.558;2022-07-06T00:45:06;100305.97;;;18.46;100.00
41866;BME280;27539;43.222;27.558;2022-07-06T00:47:32;100308.00;;;18.26;100.00
41866;BME280;27539;43.222;27.558;2022-07-06T00:49:57;100301.75;;;18.29;100.00
41866;BME280;27539;43.222;27.558;2022-07-06T00:52:43;100305.03;;;18.37;100.00
41866;BME280;27539;43.222;27.558;2022-07-06T00:55:09;100304.41;;;18.40;100.00
41866;BME280;27539;43.222;27.558;2022-07-06T00:57:36;100313.59;;;18.45;100.00
41866;BME280;27539;43.222;27.558;2022-07-06T01:00:03;100319.41;;;18.35;100.00
41866;BME280;27539;43.222;27.558;2022-07-06T01:02:33;100313.63;;;18.26;100.00
41866;BME280;27539;43.222;27.558;2022-07-06T01:04:59;100307.00;;;18.17;100.00
41866;BME280;27539;43.222;27.558;2022-07-06T01:07:25;100307.28;;;18.16;100.00
41866;BME280;27539;43.222;27.558;2022-07-06T01:09:50;100294.16;;;18.11;100.00
41866;BME280;27539;43.222;27.558;2022-07-06T01:12:18;100299.16;;;18.33;100.00
41866;BME280;27539;43.222;27.558;2022-07-06T01:14:44;100298.41;;;18.46;100.00
41866;BME280;27539;43.222;27.558;2022-07-06T01:37:42;100209.81;;;17.44;100.00
41866;BME280;27539;43.222;27.558;2022-07-06T01:40:10;100242.06;;;17.52;100.00
41866;BME280;27539;43.222;27.558;2022-07-06T01:42:36;100251.09;;;17.48;100.00
41866;BME280;27539;43.222;27.558;2022-07-06T01:45:04;100184.25;;;16.97;100.00
41866;BME280;27539;43.222;27.558;2022-07-06T01:47:30;100180.66;;;16.92;100.00
41866;BME280;27539;43.222;27.558;2022-07-06T01:50:04;100221.47;;;17.13;100.00
41866;BME280;27539;43.222;27.558;2022-07-06T01:52:30;100248.47;;;17.09;100.00
41866;BME280;27539;43.222;27.558;2022-07-06T01:54:56;100206.25;;;16.61;100.00
41866;BME280;27539;43.222;27.558;2022-07-06T01:57:22;100208.91;;;16.76;100.00
41866;BME280;27539;43.222;27.558;2022-07-06T01:59:48;100216.56;;;16.71;100.00
41866;BME280;27539;43.222;27.558;2022-07-06T02:02:14;100191.19;;;16.52;100.00
41866;BME280;27539;43.222;27.558;2022-07-06T02:04:40;100215.81;;;16.60;100.00
41866;BME280;27539;43.222;27.558;2022-07-06T02:07:06;100155.88;;;16.46;100.00
41866;BME280;27539;43.222;27.558;2022-07-06T02:09:32;100223.34;;;16.94;100.00
41866;BME280;27539;43.222;27.558;2022-07-06T02:11:58;100242.50;;;17.16;100.00
41866;BME280;27539;43.222;27.558;2022-07-06T02:14:23;100201.66;;;16.99;100.00
41866;BME280;27539;43.222;27.558;2022-07-06T02:16:49;100211.75;;;17.24;100.00
41866;BME280;27539;43.222;27.558;2022-07-06T02:39:48;100159.13;;;17.49;100.00
41866;BME280;27539;43.222;27.558;2022-07-06T02:42:14;100264.84;;;18.12;100.00
41866;BME280;27539;43.222;27.558;2022-07-06T02:44:40;100158.13;;;17.40;100.00
41866;BME280;27539;43.222;27.558;2022-07-06T02:47:05;100151.44;;;17.36;100.00
41866;BME280;27539;43.222;27.558;2022-07-06T02:49:31;100167.47;;;17.54;100.00
41866;BME280;27539;43.222;27.558;2022-07-06T02:51:57;100156.53;;;17.53;100.00
41866;BME280;27539;43.222;27.558;2022-07-06T03:30:57;100191.56;;;18.17;100.00
41866;BME280;27539;43.222;27.558;2022-07-06T03:33:23;100163.94;;;17.86;100.00
41866;BME280;27539;43.222;27.558;2022-07-06T04:17:11;100192.28;;;19.16;100.00
41866;BME280;27539;43.222;27.558;2022-07-06T04:19:55;100180.06;;;19.20;100.00
41866;BME280;27539;43.222;27.558;2022-07-06T04:22:21;100173.41;;;19.16;100.00
41866;BME280;27539;43.222;27.558;2022-07-06T04:24:47;100207.31;;;19.39;100.00
41866;BME280;27539;43.222;27.558;2022-07-06T04:27:12;100181.81;;;19.44;100.00
41866;BME280;27539;43.222;27.558;2022-07-06T04:29:38;100238.00;;;19.82;100.00
41866;BME280;27539;43.222;27.558;2022-07-06T04:32:04;100224.19;;;19.80;100.00
41866;BME280;27539;43.222;27.558;2022-07-06T04:34:30;100257.19;;;19.94;100.00
41866;BME280;27539;43.222;27.558;2022-07-06T04:36:55;100252.81;;;20.01;100.00
41866;BME280;27539;43.222;27.558;2022-07-06T04:39:21;100176.31;;;19.75;100.00
41866;BME280;27539;43.222;27.558;2022-07-06T04:41:46;100226.03;;;20.21;100.00
41866;BME280;27539;43.222;27.558;2022-07-06T04:44:12;100280.84;;;20.79;100.00
41866;BME280;27539;43.222;27.558;2022-07-06T04:46:37;100238.06;;;20.72;100.00
41866;BME280;27539;43.222;27.558;2022-07-06T04:49:03;100261.72;;;21.07;100.00
41866;BME280;27539;43.222;27.558;2022-07-06T04:51:28;100261.66;;;21.30;100.00
41866;BME280;27539;43.222;27.558;2022-07-06T04:53:54;100270.59;;;21.54;100.00
41866;BME280;27539;43.222;27.558;2022-07-06T04:56:19;100283.78;;;21.68;100.00
41866;BME280;27539;43.222;27.558;2022-07-06T04:58:45;100274.81;;;21.83;100.00
41866;BME280;27539;43.222;27.558;2022-07-06T05:01:10;100275.16;;;21.90;100.00
41866;BME280;27539;43.222;27.558;2022-07-06T05:03:36;100269.69;;;22.11;100.00
41866;BME280;27539;43.222;27.558;2022-07-06T05:06:05;100274.72;;;22.32;100.00
41866;BME280;27539;43.222;27.558;2022-07-06T05:08:30;100279.38;;;22.36;100.00
41866;BME280;27539;43.222;27.558;2022-07-06T05:10:56;100248.72;;;22.38;100.00
41866;BME280;27539;43.222;27.558;2022-07-06T05:13:22;100273.84;;;22.83;100.00
41866;BME280;27539;43.222;27.558;2022-07-06T05:15:47;100278.69;;;23.00;100.00
41866;BME280;27539;43.222;27.558;2022-07-06T05:18:13;100269.25;;;23.17;100.00
41866;BME280;27539;43.222;27.558;2022-07-06T05:20:38;100272.69;;;23.40;100.00
41866;BME280;27539;43.222;27.558;2022-07-06T05:23:04;100265.59;;;23.55;100.00
41866;BME280;27539;43.222;27.558;2022-07-06T05:25:29;100263.81;;;23.71;100.00
41866;BME280;27539;43.222;27.558;2022-07-06T05:27:55;100267.38;;;23.60;100.00
41866;BME280;27539;43.222;27.558;2022-07-06T05:30:21;100270.25;;;23.89;100.00
41866;BME280;27539;43.222;27.558;2022-07-06T05:32:46;100267.22;;;23.94;100.00
41866;BME280;27539;43.222;27.558;2022-07-06T05:35:12;100265.94;;;24.13;100.00
41866;BME280;27539;43.222;27.558;2022-07-06T05:37:38;100274.41;;;23.92;100.00
41866;BME280;27539;43.222;27.558;2022-07-06T05:40:03;100266.91;;;23.87;100.00
41866;BME280;27539;43.222;27.558;2022-07-06T05:42:29;100259.13;;;24.05;100.00
41866;BME280;27539;43.222;27.558;2022-07-06T05:44:55;100275.78;;;24.15;100.00
41866;BME280;27539;43.222;27.558;2022-07-06T05:47:22;100266.19;;;24.41;100.00
41866;BME280;27539;43.222;27.558;2022-07-06T05:50:06;100230.56;;;24.23;100.00
41866;BME280;27539;43.222;27.558;2022-07-06T05:52:42;100265.97;;;24.67;100.00
41866;BME280;27539;43.222;27.558;2022-07-06T05:55:09;100261.28;;;24.84;100.00
41866;BME280;27539;43.222;27.558;2022-07-06T05:57:35;100263.00;;;25.09;98.51
41866;BME280;27539;43.222;27.558;2022-07-06T06:00:00;100258.44;;;25.29;99.51
41866;BME280;27539;43.222;27.558;2022-07-06T06:02:26;100252.16;;;25.60;93.20
41866;BME280;27539;43.222;27.558;2022-07-06T06:04:52;100256.19;;;25.72;88.63
41866;BME280;27539;43.222;27.558;2022-07-06T06:07:18;100251.81;;;25.86;91.46
41866;BME280;27539;43.222;27.558;2022-07-06T06:09:44;100248.25;;;25.90;92.48
41866;BME280;27539;43.222;27.558;2022-07-06T06:12:09;100244.91;;;25.88;93.59
41866;BME280;27539;43.222;27.558;2022-07-06T06:14:35;100239.31;;;26.03;93.61
41866;BME280;27539;43.222;27.558;2022-07-06T06:17:00;100241.06;;;26.08;96.43
41866;BME280;27539;43.222;27.558;2022-07-06T06:19:26;100240.25;;;26.07;93.91
41866;BME280;27539;43.222;27.558;2022-07-06T06:21:51;100249.84;;;26.15;93.84
41866;BME280;27539;43.222;27.558;2022-07-06T06:24:17;100246.94;;;26.40;98.98
41866;BME280;27539;43.222;27.558;2022-07-06T06:26:43;100245.22;;;26.51;93.56
41866;BME280;27539;43.222;27.558;2022-07-06T06:29:09;100241.16;;;26.64;94.43
41866;BME280;27539;43.222;27.558;2022-07-06T06:31:34;100246.25;;;26.87;92.37
41866;BME280;27539;43.222;27.558;2022-07-06T06:34:00;100248.22;;;26.99;92.50
41866;BME280;27539;43.222;27.558;2022-07-06T06:36:25;100238.59;;;27.19;93.09
41866;BME280;27539;43.222;27.558;2022-07-06T06:38:51;100237.03;;;27.22;88.71
41866;BME280;27539;43.222;27.558;2022-07-06T06:41:16;100236.91;;;27.18;87.47
41866;BME280;27539;43.222;27.558;2022-07-06T06:43:41;100235.72;;;27.35;87.69
41866;BME280;27539;43.222;27.558;2022-07-06T06:46:07;100247.69;;;27.41;85.40
41866;BME280;27539;43.222;27.558;2022-07-06T06:48:32;100244.28;;;27.51;85.55
41866;BME280;27539;43.222;27.558;2022-07-06T06:50:58;100228.25;;;27.62;87.32
41866;BME280;27539;43.222;27.558;2022-07-06T06:53:23;100235.28;;;27.49;81.31
41866;BME280;27539;43.222;27.558;2022-07-06T06:55:49;100228.97;;;27.75;85.17
41866;BME280;27539;43.222;27.558;2022-07-06T06:58:14;100232.91;;;27.86;80.15
41866;BME280;27539;43.222;27.558;2022-07-06T07:00:40;100228.91;;;28.07;80.35
41866;BME280;27539;43.222;27.558;2022-07-06T07:03:05;100228.06;;;28.06;83.05
41866;BME280;27539;43.222;27.558;2022-07-06T07:05:31;100230.72;;;28.15;79.38
41866;BME280;27539;43.222;27.558;2022-07-06T07:07:57;100237.47;;;28.26;72.72
41866;BME280;27539;43.222;27.558;2022-07-06T07:10:25;100228.69;;;28.15;77.12
41866;BME280;27539;43.222;27.558;2022-07-06T07:12:51;100227.16;;;28.57;71.80
41866;BME280;27539;43.222;27.558;2022-07-06T07:15:17;100229.31;;;28.63;73.32
41866;BME280;27539;43.222;27.558;2022-07-06T07:17:43;100228.44;;;29.02;72.08
41866;BME280;27539;43.222;27.558;2022-07-06T07:20:09;100233.56;;;29.12;68.89
41866;BME280;27539;43.222;27.558;2022-07-06T07:22:34;100236.44;;;28.93;67.86
41866;BME280;27539;43.222;27.558;2022-07-06T07:25:00;100225.16;;;29.03;71.22
41866;BME280;27539;43.222;27.558;2022-07-06T07:27:26;100205.22;;;29.07;69.15
41866;BME280;27539;43.222;27.558;2022-07-06T07:29:51;100230.41;;;29.44;67.76
41866;BME280;27539;43.222;27.558;2022-07-06T07:32:18;100238.47;;;29.61;65.32
41866;BME280;27539;43.222;27.558;2022-07-06T07:34:43;100230.84;;;29.69;66.52
41866;BME280;27539;43.222;27.558;2022-07-06T07:37:10;100222.69;;;29.48;61.58
41866;BME280;27539;43.222;27.558;2022-07-06T07:39:36;100221.25;;;29.61;59.47
41866;BME280;27539;43.222;27.558;2022-07-06T07:42:02;100223.13;;;29.73;57.42
41866;BME280;27539;43.222;27.558;2022-07-06T07:44:27;100221.78;;;29.93;56.91
41866;BME280;27539;43.222;27.558;2022-07-06T07:46:53;100208.69;;;30.23;54.86
41866;BME280;27539;43.222;27.558;2022-07-06T07:49:18;100212.75;;;30.22;54.99
41866;BME280;27539;43.222;27.558;2022-07-06T07:51:46;100212.75;;;30.52;57.58
41866;BME280;27539;43.222;27.558;2022-07-06T07:54:12;100222.44;;;30.74;58.14
41866;BME280;27539;43.222;27.558;2022-07-06T07:56:37;100215.28;;;30.94;55.63
41866;BME280;27539;43.222;27.558;2022-07-06T07:59:06;100216.16;;;30.98;55.23
41866;BME280;27539;43.222;27.558;2022-07-06T08:01:32;100212.41;;;30.94;52.47
41866;BME280;27539;43.222;27.558;2022-07-06T08:03:58;100213.31;;;31.02;51.73
41866;BME280;27539;43.222;27.558;2022-07-06T08:06:24;100209.03;;;31.26;55.36
41866;BME280;27539;43.222;27.558;2022-07-06T08:08:49;100220.63;;;31.37;48.50
41866;BME280;27539;43.222;27.558;2022-07-06T08:11:15;100228.41;;;30.92;48.20
41866;BME280;27539;43.222;27.558;2022-07-06T08:13:41;100224.66;;;31.29;49.14
41866;BME280;27539;43.222;27.558;2022-07-06T08:16:06;100230.47;;;30.95;45.82
41866;BME280;27539;43.222;27.558;2022-07-06T08:18:33;100197.28;;;31.38;47.88
41866;BME280;27539;43.222;27.558;2022-07-06T08:20:59;100231.97;;;31.63;49.28
41866;BME280;27539;43.222;27.558;2022-07-06T08:23:24;100227.84;;;31.64;46.24
41866;BME280;27539;43.222;27.558;2022-07-06T08:25:50;100229.16;;;31.71;46.16
41866;BME280;27539;43.222;27.558;2022-07-06T08:28:15;100220.28;;;31.97;46.68
41866;BME280;27539;43.222;27.558;2022-07-06T08:30:40;100217.94;;;32.14;47.90
41866;BME280;27539;43.222;27.558;2022-07-06T08:33:06;100213.53;;;32.45;45.05
41866;BME280;27539;43.222;27.558;2022-07-06T08:35:31;100215.31;;;32.71;48.44
41866;BME280;27539;43.222;27.558;2022-07-06T08:37:57;100205.31;;;32.43;45.89
41866;BME280;27539;43.222;27.558;2022-07-06T08:40:22;100211.16;;;32.54;43.40
41866;BME280;27539;43.222;27.558;2022-07-06T08:42:51;100199.69;;;32.79;46.74
41866;BME280;27539;43.222;27.558;2022-07-06T08:45:19;100204.66;;;32.97;42.76
41866;BME280;27539;43.222;27.558;2022-07-06T08:47:46;100204.25;;;33.02;42.52
41866;BME280;27539;43.222;27.558;2022-07-06T08:50:14;100209.59;;;32.78;40.96
41866;BME280;27539;43.222;27.558;2022-07-06T08:52:41;100209.63;;;32.96;42.29
41866;BME280;27539;43.222;27.558;2022-07-06T08:55:08;100196.47;;;33.09;43.25
41866;BME280;27539;43.222;27.558;2022-07-06T08:57:34;100204.31;;;33.34;43.67
41866;BME280;27539;43.222;27.558;2022-07-06T09:00:00;100186.19;;;33.23;42.71
41866;BME280;27539;43.222;27.558;2022-07-06T09:02:26;100200.19;;;33.28;42.50
41866;BME280;27539;43.222;27.558;2022-07-06T09:04:53;100200.22;;;33.56;44.76
41866;BME280;27539;43.222;27.558;2022-07-06T09:07:20;100191.53;;;33.82;41.67
41866;BME280;27539;43.222;27.558;2022-07-06T09:09:46;100186.16;;;33.87;42.50
41866;BME280;27539;43.222;27.558;2022-07-06T09:12:12;100191.53;;;33.67;43.48
41866;BME280;27539;43.222;27.558;2022-07-06T09:14:40;100175.03;;;33.89;41.63
41866;BME280;27539;43.222;27.558;2022-07-06T09:17:06;100186.59;;;33.78;40.51
41866;BME280;27539;43.222;27.558;2022-07-06T09:19:33;100182.09;;;33.60;41.88
41866;BME280;27539;43.222;27.558;2022-07-06T09:22:00;100158.19;;;33.20;41.45
41866;BME280;27539;43.222;27.558;2022-07-06T09:24:25;100190.66;;;32.88;44.45
41866;BME280;27539;43.222;27.558;2022-07-06T09:26:54;100182.75;;;32.53;44.14
41866;BME280;27539;43.222;27.558;2022-07-06T09:29:27;100173.91;;;32.10;44.71
41866;BME280;27539;43.222;27.558;2022-07-06T09:32:01;100170.47;;;32.74;47.14
41866;BME280;27539;43.222;27.558;2022-07-06T09:34:43;100174.25;;;33.06;44.38
41866;BME280;27539;43.222;27.558;2022-07-06T09:37:09;100178.78;;;33.40;44.59
41866;BME280;27539;43.222;27.558;2022-07-06T09:39:35;100171.31;;;33.85;45.39
41866;BME280;27539;43.222;27.558;2022-07-06T09:42:02;100177.03;;;34.07;43.04
41866;BME280;27539;43.222;27.558;2022-07-06T09:44:31;100179.94;;;33.92;42.63
41866;BME280;27539;43.222;27.558;2022-07-06T09:46:59;100172.09;;;34.07;41.48
41866;BME280;27539;43.222;27.558;2022-07-06T09:49:24;100162.72;;;33.71;41.83
41866;BME280;27539;43.222;27.558;2022-07-06T09:51:55;100151.16;;;33.60;41.63
41866;BME280;27539;43.222;27.558;2022-07-06T09:54:21;100162.28;;;33.65;41.68
41866;BME280;27539;43.222;27.558;2022-07-06T09:56:48;100170.41;;;34.17;41.46
41866;BME280;27539;43.222;27.558;2022-07-06T09:59:17;100169.53;;;34.34;42.50
41866;BME280;27539;43.222;27.558;2022-07-06T10:01:43;100159.31;;;33.97;40.09
41866;BME280;27539;43.222;27.558;2022-07-06T10:04:11;100137.53;;;33.82;41.27
41866;BME280;27539;43.222;27.558;2022-07-06T10:06:40;100156.41;;;34.15;40.75
41866;BME280;27539;43.222;27.558;2022-07-06T10:09:07;100160.59;;;33.89;38.77
41866;BME280;27539;43.222;27.558;2022-07-06T10:11:46;100138.19;;;34.29;39.48
41866;BME280;27539;43.222;27.558;2022-07-06T10:14:15;100129.50;;;34.36;38.19
41866;BME280;27539;43.222;27.558;2022-07-06T10:16:42;100146.28;;;34.56;37.63
41866;BME280;27539;43.222;27.558;2022-07-06T10:19:09;100162.19;;;34.12;36.63
41866;BME280;27539;43.222;27.558;2022-07-06T10:21:36;100163.84;;;34.09;37.60
41866;BME280;27539;43.222;27.558;2022-07-06T10:24:03;100152.22;;;34.27;35.59
41866;BME280;27539;43.222;27.558;2022-07-06T10:26:29;100157.44;;;34.61;36.96
41866;BME280;27539;43.222;27.558;2022-07-06T10:28:58;100158.72;;;34.49;34.84
41866;BME280;27539;43.222;27.558;2022-07-06T10:31:24;100162.97;;;34.19;34.57
41866;BME280;27539;43.222;27.558;2022-07-06T10:33:50;100158.47;;;34.00;35.32
41866;BME280;27539;43.222;27.558;2022-07-06T10:36:17;100165.47;;;34.21;36.54
41866;BME280;27539;43.222;27.558;2022-07-06T10:38:48;100132.94;;;33.95;37.09
41866;BME280;27539;43.222;27.558;2022-07-06T10:41:14;100158.03;;;34.06;36.91
41866;BME280;27539;43.222;27.558;2022-07-06T10:43:44;100147.09;;;34.67;40.07
41866;BME280;27539;43.222;27.558;2022-07-06T10:46:11;100149.25;;;34.49;34.97
41866;BME280;27539;43.222;27.558;2022-07-06T10:48:42;100147.09;;;34.67;36.12
41866;BME280;27539;43.222;27.558;2022-07-06T10:51:11;100129.94;;;34.31;35.44
41866;BME280;27539;43.222;27.558;2022-07-06T10:53:38;100141.88;;;34.33;35.21
41866;BME280;27539;43.222;27.558;2022-07-06T10:56:09;100131.94;;;34.38;38.73
41866;BME280;27539;43.222;27.558;2022-07-06T10:58:40;100114.09;;;34.57;37.15
41866;BME280;27539;43.222;27.558;2022-07-06T11:01:09;100139.47;;;34.95;36.84
41866;BME280;27539;43.222;27.558;2022-07-06T11:06:20;100123.94;;;34.74;36.76
41866;BME280;27539;43.222;27.558;2022-07-06T11:08:47;100127.59;;;34.82;36.33
41866;BME280;27539;43.222;27.558;2022-07-06T11:11:18;100134.72;;;34.63;37.04
41866;BME280;27539;43.222;27.558;2022-07-06T11:13:52;100105.31;;;34.09;36.79
41866;BME280;27539;43.222;27.558;2022-07-06T11:16:19;100120.41;;;34.38;36.40
41866;BME280;27539;43.222;27.558;2022-07-06T11:18:59;100122.50;;;34.34;38.39
41866;BME280;27539;43.222;27.558;2022-07-06T11:21:36;100108.09;;;34.23;36.80
41866;BME280;27539;43.222;27.558;2022-07-06T11:24:04;100106.53;;;34.00;36.08
41866;BME280;27539;43.222;27.558;2022-07-06T11:26:30;100101.34;;;33.42;36.17
41866;BME280;27539;43.222;27.558;2022-07-06T11:28:58;100110.78;;;33.49;36.92
41866;BME280;27539;43.222;27.558;2022-07-06T11:31:25;100115.50;;;34.31;38.74
41866;BME280;27539;43.222;27.558;2022-07-06T11:33:51;100094.69;;;34.65;36.23
41866;BME280;27539;43.222;27.558;2022-07-06T11:36:19;100102.88;;;34.74;35.03
41866;BME280;27539;43.222;27.558;2022-07-06T11:38:47;100102.09;;;35.18;35.79
41866;BME280;27539;43.222;27.558;2022-07-06T11:41:13;100110.84;;;35.15;34.97
41866;BME280;27539;43.222;27.558;2022-07-06T11:43:47;100092.88;;;34.85;35.51
41866;BME280;27539;43.222;27.558;2022-07-06T11:48:53;100100.31;;;34.87;37.07
41866;BME280;27539;43.222;27.558;2022-07-06T11:51:20;100102.31;;;34.30;35.49
41866;BME280;27539;43.222;27.558;2022-07-06T11:53:47;100090.25;;;34.46;36.77
41866;BME280;27539;43.222;27.558;2022-07-06T11:56:16;100087.94;;;34.16;36.19
41866;BME280;27539;43.222;27.558;2022-07-06T11:58:49;100064.22;;;33.69;36.56
41866;BME280;27539;43.222;27.558;2022-07-06T12:01:14;100058.72;;;33.99;34.96
41866;BME280;27539;43.222;27.558;2022-07-06T12:03:44;100062.44;;;34.04;37.09
41866;BME280;27539;43.222;27.558;2022-07-06T12:06:22;100076.28;;;34.37;37.19
41866;BME280;27539;43.222;27.558;2022-07-06T12:08:51;100080.66;;;34.67;36.20
41866;BME280;27539;43.222;27.558;2022-07-06T12:11:26;100075.53;;;34.26;35.94
41866;BME280;27539;43.222;27.558;2022-07-06T12:13:54;100042.38;;;34.45;36.84
41866;BME280;27539;43.222;27.558;2022-07-06T12:16:20;100069.94;;;34.60;35.59
41866;BME280;27539;43.222;27.558;2022-07-06T12:18:48;100072.84;;;34.53;37.21
41866;BME280;27539;43.222;27.558;2022-07-06T12:21:16;100067.38;;;34.73;35.68
41866;BME280;27539;43.222;27.558;2022-07-06T12:23:48;100062.06;;;34.68;34.34
41866;BME280;27539;43.222;27.558;2022-07-06T12:26:16;100039.88;;;34.51;35.64
41866;BME280;27539;43.222;27.558;2022-07-06T12:28:42;100046.50;;;35.00;36.47
41866;BME280;27539;43.222;27.558;2022-07-06T12:31:08;100054.38;;;35.41;35.54
41866;BME280;27539;43.222;27.558;2022-07-06T12:33:34;100050.63;;;35.44;34.89
41866;BME280;27539;43.222;27.558;2022-07-06T12:36:11;100056.31;;;35.13;34.63
41866;BME280;27539;43.222;27.558;2022-07-06T12:38:44;100052.97;;;34.66;35.33
41866;BME280;27539;43.222;27.558;2022-07-06T12:41:10;100046.22;;;34.31;36.37
41866;BME280;27539;43.222;27.558;2022-07-06T12:43:39;100025.41;;;33.84;35.71
41866;BME280;27539;43.222;27.558;2022-07-06T12:46:27;100054.09;;;34.20;36.67
41866;BME280;27539;43.222;27.558;2022-07-06T12:48:55;100042.19;;;34.14;36.92
41866;BME280;27539;43.222;27.558;2022-07-06T12:51:21;100039.84;;;34.54;36.93
41866;BME280;27539;43.222;27.558;2022-07-06T12:53:47;100032.53;;;34.91;38.72
41866;BME280;27539;43.222;27.558;2022-07-06T12:56:13;100030.81;;;35.01;39.56
41866;BME280;27539;43.222;27.558;2022-07-06T12:58:39;100041.25;;;35.33;40.74
41866;BME280;27539;43.222;27.558;2022-07-06T13:01:05;100028.81;;;35.36;37.25
41866;BME280;27539;43.222;27.558;2022-07-06T13:03:40;100037.44;;;34.46;36.52
41866;BME280;27539;43.222;27.558;2022-07-06T13:06:06;100040.25;;;33.86;36.98
41866;BME280;27539;43.222;27.558;2022-07-06T13:08:31;100032.19;;;33.27;37.07
41866;BME280;27539;43.222;27.558;2022-07-06T13:10:57;100024.72;;;33.59;38.17
41866;BME280;27539;43.222;27.558;2022-07-06T13:13:22;100019.31;;;33.61;37.98
41866;BME280;27539;43.222;27.558;2022-07-06T13:15:48;100027.06;;;33.89;37.89
41866;BME280;27539;43.222;27.558;2022-07-06T13:18:14;100014.41;;;34.35;39.42
41866;BME280;27539;43.222;27.558;2022-07-06T13:20:40;100019.88;;;34.81;38.65
41866;BME280;27539;43.222;27.558;2022-07-06T13:23:07;100023.91;;;34.88;36.24
41866;BME280;27539;43.222;27.558;2022-07-06T13:25:32;100022.50;;;34.58;38.40
41866;BME280;27539;43.222;27.558;2022-07-06T13:27:58;100016.72;;;35.06;38.64
41866;BME280;27539;43.222;27.558;2022-07-06T13:30:23;100024.72;;;34.88;37.29
41866;BME280;27539;43.222;27.558;2022-07-06T13:32:49;100013.28;;;34.77;36.59
41866;BME280;27539;43.222;27.558;2022-07-06T13:35:14;100011.47;;;34.42;36.32
41866;BME280;27539;43.222;27.558;2022-07-06T13:37:40;100014.31;;;34.98;36.86
41866;BME280;27539;43.222;27.558;2022-07-06T13:40:05;100022.53;;;35.03;37.59
41866;BME280;27539;43.222;27.558;2022-07-06T13:42:31;100016.66;;;35.17;36.30
41866;BME280;27539;43.222;27.558;2022-07-06T13:44:57;100008.47;;;35.09;37.42
41866;BME280;27539;43.222;27.558;2022-07-06T13:47:22;100015.06;;;34.60;37.67
41866;BME280;27539;43.222;27.558;2022-07-06T13:49:48;100012.06;;;34.15;38.66
41866;BME280;27539;43.222;27.558;2022-07-06T13:52:14;100008.50;;;33.86;40.24
41866;BME280;27539;43.222;27.558;2022-07-06T13:54:40;100016.28;;;33.93;39.60
41866;BME280;27539;43.222;27.558;2022-07-06T13:57:05;100014.84;;;33.42;39.19
41866;BME280;27539;43.222;27.558;2022-07-06T13:59:32;100007.94;;;32.96;39.69
41866;BME280;27539;43.222;27.558;2022-07-06T14:01:57;100016.97;;;33.16;41.41
41866;BME280;27539;43.222;27.558;2022-07-06T14:04:23;100013.22;;;33.30;40.48
41866;BME280;27539;43.222;27.558;2022-07-06T14:06:48;100004.59;;;33.16;40.99
41866;BME280;27539;43.222;27.558;2022-07-06T14:09:14;100005.88;;;33.11;42.40
41866;BME280;27539;43.222;27.558;2022-07-06T14:11:39;100018.59;;;33.31;43.32
41866;BME280;27539;43.222;27.558;2022-07-06T14:14:05;100004.53;;;33.59;43.19
41866;BME280;27539;43.222;27.558;2022-07-06T14:16:34;100007.28;;;33.84;42.57
41866;BME280;27539;43.222;27.558;2022-07-06T14:19:00;99994.09;;;33.86;42.37
41866;BME280;27539;43.222;27.558;2022-07-06T14:21:26;100019.59;;;33.95;41.49
41866;BME280;27539;43.222;27.558;2022-07-06T14:23:52;100007.63;;;33.93;41.65
41866;BME280;27539;43.222;27.558;2022-07-06T14:26:17;100013.19;;;34.32;42.53
41866;BME280;27539;43.222;27.558;2022-07-06T14:28:43;100015.28;;;34.32;40.69
41866;BME280;27539;43.222;27.558;2022-07-06T14:31:08;100004.06;;;33.71;40.64
41866;BME280;27539;43.222;27.558;2022-07-06T14:33:34;99999.38;;;33.95;40.92
41866;BME280;27539;43.222;27.558;2022-07-06T14:36:00;100003.84;;;34.07;41.40
41866;BME280;27539;43.222;27.558;2022-07-06T14:38:25;100015.63;;;34.37;41.23
41866;BME280;27539;43.222;27.558;2022-07-06T14:40:53;100006.00;;;34.55;41.01